sensor_id;sensor_type;location;lat;lon;timestamp;temperature;humidity
37786;DHT22;23625;48.784;9.336;2024-01-15T00:01:29;-1.90;99.90
37786;DHT22;23625;48.784;9.336;2024-01-15T00:03:55;-1.90;99.90
37786;DHT22;23625;48.784;9.336;2024-01-15T00:06:20;-1.90;99.90
37786;DHT22;23625;48.784;9.336;2024-01-15T00:08:46;-1.90;99.90
37786;DHT22;23625;48.784;9.336;2024-01-15T00:11:12;-1.90;99.90
37786;DHT22;23625;48.784;9.336;2024-01-15T00:13:37;-2.00;99.90
37786;DHT22;23625;48.784;9.336;2024-01-15T00:16:04;-2.00;99.90
37786;DHT22;23625;48.784;9.336;2024-01-15T00:18:29;-2.00;99.90
37786;DHT22;23625;48.784;9.336;2024-01-15T00:20:55;-2.10;99.90
37786;DHT22;23625;48.784;9.336;2024-01-15T00:23:20;-2.00;99.90
37786;DHT22;23625;48.784;9.336;2024-01-15T00:25:46;-2.00;99.90
37786;DHT22;23625;48.784;9.336;2024-01-15T00:28:12;-2.00;99.90
37786;DHT22;23625;48.784;9.336;2024-01-15T00:30:37;-2.10;99.90
37786;DHT22;23625;48.784;9.336;2024-01-15T00:33:03;-2.20;99.90
37786;DHT22;23625;48.784;9.336;2024-01-15T00:35:28;-2.20;99.90
37786;DHT22;23625;48.784;9.336;2024-01-15T00:37:54;-2.30;99.90
37786;DHT22;23625;48.784;9.336;2024-01-15T00:40:20;-2.30;99.90
37786;DHT22;23625;48.784;9.336;2024-01-15T00:42:45;-2.30;99.90
37786;DHT22;23625;48.784;9.336;2024-01-15T00:45:11;-2.30;99.90
37786;DHT22;23625;48.784;9.336;2024-01-15T00:47:36;-2.30;99.90
37786;DHT22;23625;48.784;9.336;2024-01-15T00:50:02;-2.30;99.90
37786;DHT22;23625;48.784;9.336;2024-01-15T00:52:28;-2.30;99.90
37786;DHT22;23625;48.784;9.336;2024-01-15T00:54:54;-2.40;99.90
37786;DHT22;23625;48.784;9.336;2024-01-15T00:57:19;-2.40;99.90
37786;DHT22;23625;48.784;9.336;2024-01-15T00:59:45;-2.40;99.90
37786;DHT22;23625;48.784;9.336;2024-01-15T01:02:11;-2.40;99.90
37786;DHT22;23625;48.784;9.336;2024-01-15T01:04:36;-2.40;99.90
37786;DHT22;23625;48.784;9.336;2024-01-15T01:07:02;-2.30;99.90
37786;DHT22;23625;48.784;9.336;2024-01-15T01:09:27;-2.40;99.90
37786;DHT22;23625;48.784;9.336;2024-01-15T01:11:56;-2.40;99.90
37786;DHT22;23625;48.784;9.336;2024-01-15T01:14:22;-2.40;99.90
37786;DHT22;23625;48.784;9.336;2024-01-15T01:16:47;-2.40;99.90
37786;DHT22;23625;48.784;9.336;2024-01-15T01:19:13;-2.50;99.90
37786;DHT22;23625;48.784;9.336;2024-01-15T01:21:38;-2.50;99.90
37786;DHT22;23625;48.784;9.336;2024-01-15T01:24:04;-2.50;99.90
37786;DHT22;23625;48.784;9.336;2024-01-15T01:26:30;-2.50;99.90
37786;DHT22;23625;48.784;9.336;2024-01-15T01:28:56;-2.50;99.90
37786;DHT22;23625;48.784;9.336;2024-01-15T01:31:23;-2.50;99.90
37786;DHT22;23625;48.784;9.336;2024-01-15T01:33:49;-2.40;99.90
37786;DHT22;23625;48.784;9.336;2024-01-15T01:36:14;-2.40;99.90
37786;DHT22;23625;48.784;9.336;2024-01-15T01:38:41;-2.40;99.90
37786;DHT22;23625;48.784;9.336;2024-01-15T01:41:06;-2.30;99.90
37786;DHT22;23625;48.784;9.336;2024-01-15T01:43:32;-2.30;99.90
37786;DHT22;23625;48.784;9.336;2024-01-15T01:45:58;-1.40;99.90
37786;DHT22;23625;48.784;9.336;2024-01-15T01:48:25;-2.20;99.90
37786;DHT22;23625;48.784;9.336;2024-01-15T01:50:53;-2.20;99.90
37786;DHT22;23625;48.784;9.336;2024-01-15T01:53:20;-2.10;99.90
37786;DHT22;23625;48.784;9.336;2024-01-15T01:55:46;-1.90;99.90
37786;DHT22;23625;48.784;9.336;2024-01-15T01:58:13;-1.80;99.90
37786;DHT22;23625;48.784;9.336;2024-01-15T02:00:39;-1.70;99.90
37786;DHT22;23625;48.784;9.336;2024-01-15T02:03:04;-1.70;99.90
37786;DHT22;23625;48.784;9.336;2024-01-15T02:05:31;-1.60;99.90
37786;DHT22;23625;48.784;9.336;2024-01-15T02:07:56;-1.50;99.90
37786;DHT22;23625;48.784;9.336;2024-01-15T02:10:22;-1.40;99.90
37786;DHT22;23625;48.784;9.336;2024-01-15T02:12:48;-1.40;99.90
37786;DHT22;23625;48.784;9.336;2024-01-15T02:15:14;-1.30;99.90
37786;DHT22;23625;48.784;9.336;2024-01-15T02:18:03;-1.30;99.90
37786;DHT22;23625;48.784;9.336;2024-01-15T02:20:29;-1.20;99.90
37786;DHT22;23625;48.784;9.336;2024-01-15T02:23:22;-1.10;99.90
37786;DHT22;23625;48.784;9.336;2024-01-15T02:25:48;-1.10;99.90
37786;DHT22;23625;48.784;9.336;2024-01-15T02:28:17;-1.00;99.90
37786;DHT22;23625;48.784;9.336;2024-01-15T02:30:43;-1.00;99.90
37786;DHT22;23625;48.784;9.336;2024-01-15T02:33:10;-1.00;99.90
37786;DHT22;23625;48.784;9.336;2024-01-15T02:35:36;-0.90;99.90
37786;DHT22;23625;48.784;9.336;2024-01-15T02:38:03;-0.90;99.90
37786;DHT22;23625;48.784;9.336;2024-01-15T02:40:28;-0.80;99.90
37786;DHT22;23625;48.784;9.336;2024-01-15T02:42:54;-0.90;99.90
37786;DHT22;23625;48.784;9.336;2024-01-15T02:45:20;-0.90;99.90
37786;DHT22;23625;48.784;9.336;2024-01-15T02:47:46;-0.90;99.90
37786;DHT22;23625;48.784;9.336;2024-01-15T02:50:12;-0.90;99.90
37786;DHT22;23625;48.784;9.336;2024-01-15T02:52:37;-0.80;99.90
37786;DHT22;23625;48.784;9.336;2024-01-15T02:55:03;-0.80;99.90
37786;DHT22;23625;48.784;9.336;2024-01-15T02:57:29;-0.80;99.90
37786;DHT22;23625;48.784;9.336;2024-01-15T02:59:54;-0.80;99.90
37786;DHT22;23625;48.784;9.336;2024-01-15T03:02:20;-0.80;99.90
37786;DHT22;23625;48.784;9.336;2024-01-15T03:04:46;-0.80;99.90
37786;DHT22;23625;48.784;9.336;2024-01-15T03:07:12;-0.80;99.90
37786;DHT22;23625;48.784;9.336;2024-01-15T03:09:37;-0.80;99.90
37786;DHT22;23625;48.784;9.336;2024-01-15T03:12:03;-0.80;99.90
37786;DHT22;23625;48.784;9.336;2024-01-15T03:14:29;-0.90;99.90
37786;DHT22;23625;48.784;9.336;2024-01-15T03:16:55;-0.90;99.90
37786;DHT22;23625;48.784;9.336;2024-01-15T03:19:20;-1.00;99.90
37786;DHT22;23625;48.784;9.336;2024-01-15T03:21:46;-1.00;99.90
37786;DHT22;23625;48.784;9.336;2024-01-15T03:24:11;-1.00;99.90
37786;DHT22;23625;48.784;9.336;2024-01-15T03:26:37;-0.90;99.90
37786;DHT22;23625;48.784;9.336;2024-01-15T03:29:03;-1.00;99.90
37786;DHT22;23625;48.784;9.336;2024-01-15T03:31:28;-1.00;99.90
37786;DHT22;23625;48.784;9.336;2024-01-15T03:33:54;-1.10;99.90
37786;DHT22;23625;48.784;9.336;2024-01-15T03:36:19;-1.10;99.90
37786;DHT22;23625;48.784;9.336;2024-01-15T03:38:45;-1.10;99.90
37786;DHT22;23625;48.784;9.336;2024-01-15T03:41:10;-1.10;99.90
37786;DHT22;23625;48.784;9.336;2024-01-15T03:43:36;-1.10;99.90
37786;DHT22;23625;48.784;9.336;2024-01-15T03:46:02;-1.10;99.90
37786;DHT22;23625;48.784;9.336;2024-01-15T03:48:28;-1.10;99.90
37786;DHT22;23625;48.784;9.336;2024-01-15T03:50:53;-1.20;99.90
37786;DHT22;23625;48.784;9.336;2024-01-15T03:53:19;-1.20;99.90
37786;DHT22;23625;48.784;9.336;2024-01-15T03:55:44;-1.10;99.90
37786;DHT22;23625;48.784;9.336;2024-01-15T03:58:10;-1.20;99.90
37786;DHT22;23625;48.784;9.336;2024-01-15T04:00:36;-1.20;99.90
37786;DHT22;23625;48.784;9.336;2024-01-15T04:03:02;-1.20;99.90
37786;DHT22;23625;48.784;9.336;2024-01-15T04:05:28;-1.20;99.90
37786;DHT22;23625;48.784;9.336;2024-01-15T04:07:53;-1.10;99.90
37786;DHT22;23625;48.784;9.336;2024-01-15T04:10:19;-1.10;99.90
37786;DHT22;23625;48.784;9.336;2024-01-15T04:12:45;-1.10;99.90
37786;DHT22;23625;48.784;9.336;2024-01-15T04:15:13;-1.20;99.90
37786;DHT22;23625;48.784;9.336;2024-01-15T04:17:39;-1.20;99.90
37786;DHT22;23625;48.784;9.336;2024-01-15T04:20:05;-1.20;99.90
37786;DHT22;23625;48.784;9.336;2024-01-15T04:22:32;-1.20;99.90
37786;DHT22;23625;48.784;9.336;2024-01-15T04:24:57;-1.10;99.90
37786;DHT22;23625;48.784;9.336;2024-01-15T04:27:23;-1.00;99.90
37786;DHT22;23625;48.784;9.336;2024-01-15T04:29:48;-1.00;99.90
37786;DHT22;23625;48.784;9.336;2024-01-15T04:32:14;-1.00;99.90
37786;DHT22;23625;48.784;9.336;2024-01-15T04:34:39;-1.00;99.90
37786;DHT22;23625;48.784;9.336;2024-01-15T04:37:05;-1.00;99.90
37786;DHT22;23625;48.784;9.336;2024-01-15T04:39:31;-1.00;99.90
37786;DHT22;23625;48.784;9.336;2024-01-15T04:41:56;-1.00;99.90
37786;DHT22;23625;48.784;9.336;2024-01-15T04:44:22;-0.90;99.90
37786;DHT22;23625;48.784;9.336;2024-01-15T04:46:48;-0.90;99.90
37786;DHT22;23625;48.784;9.336;2024-01-15T04:49:13;-0.80;99.90
37786;DHT22;23625;48.784;9.336;2024-01-15T04:51:39;-0.70;99.90
37786;DHT22;23625;48.784;9.336;2024-01-15T04:54:04;-0.70;99.90
37786;DHT22;23625;48.784;9.336;2024-01-15T04:56:30;-0.60;99.90
37786;DHT22;23625;48.784;9.336;2024-01-15T04:58:56;-0.60;99.90
37786;DHT22;23625;48.784;9.336;2024-01-15T05:01:21;-0.60;99.90
37786;DHT22;23625;48.784;9.336;2024-01-15T05:03:47;-0.60;99.90
37786;DHT22;23625;48.784;9.336;2024-01-15T05:06:12;-0.50;99.90
37786;DHT22;23625;48.784;9.336;2024-01-15T05:08:38;-0.50;99.90
37786;DHT22;23625;48.784;9.336;2024-01-15T05:11:03;-0.50;99.90
37786;DHT22;23625;48.784;9.336;2024-01-15T05:13:29;-0.50;99.90
37786;DHT22;23625;48.784;9.336;2024-01-15T05:15:55;-0.50;99.90
37786;DHT22;23625;48.784;9.336;2024-01-15T05:18:20;-0.40;99.90
37786;DHT22;23625;48.784;9.336;2024-01-15T05:20:46;-0.40;99.90
37786;DHT22;23625;48.784;9.336;2024-01-15T05:23:11;-0.30;99.90
37786;DHT22;23625;48.784;9.336;2024-01-15T05:25:37;-0.30;99.90
37786;DHT22;23625;48.784;9.336;2024-01-15T05:28:03;-0.30;99.90
37786;DHT22;23625;48.784;9.336;2024-01-15T05:30:29;-0.20;99.90
37786;DHT22;23625;48.784;9.336;2024-01-15T05:32:54;-0.20;99.90
37786;DHT22;23625;48.784;9.336;2024-01-15T05:35:20;-0.20;99.90
37786;DHT22;23625;48.784;9.336;2024-01-15T05:37:46;-0.20;99.90
37786;DHT22;23625;48.784;9.336;2024-01-15T05:40:12;-0.20;99.90
37786;DHT22;23625;48.784;9.336;2024-01-15T05:42:38;-0.20;99.90
37786;DHT22;23625;48.784;9.336;2024-01-15T05:45:05;-0.20;99.90
37786;DHT22;23625;48.784;9.336;2024-01-15T05:47:31;-0.20;99.90
37786;DHT22;23625;48.784;9.336;2024-01-15T05:49:57;-0.20;99.90
37786;DHT22;23625;48.784;9.336;2024-01-15T05:52:23;-0.20;99.90
37786;DHT22;23625;48.784;9.336;2024-01-15T05:54:49;-0.20;99.90
37786;DHT22;23625;48.784;9.336;2024-01-15T05:57:15;-0.20;99.90
37786;DHT22;23625;48.784;9.336;2024-01-15T05:59:42;-0.10;99.90
37786;DHT22;23625;48.784;9.336;2024-01-15T06:02:08;-0.10;99.90
37786;DHT22;23625;48.784;9.336;2024-01-15T06:04:33;0.00;99.90
37786;DHT22;23625;48.784;9.336;2024-01-15T06:06:59;0.10;99.90
37786;DHT22;23625;48.784;9.336;2024-01-15T06:09:25;0.10;99.90
37786;DHT22;23625;48.784;9.336;2024-01-15T06:11:50;0.10;99.90
37786;DHT22;23625;48.784;9.336;2024-01-15T06:14:16;0.10;99.90
37786;DHT22;23625;48.784;9.336;2024-01-15T06:16:41;0.10;99.90
37786;DHT22;23625;48.784;9.336;2024-01-15T06:19:07;0.10;99.90
37786;DHT22;23625;48.784;9.336;2024-01-15T06:21:32;0.20;99.90
37786;DHT22;23625;48.784;9.336;2024-01-15T06:23:58;0.20;99.90
37786;DHT22;23625;48.784;9.336;2024-01-15T06:26:24;0.20;99.90
37786;DHT22;23625;48.784;9.336;2024-01-15T06:28:50;0.20;99.90
37786;DHT22;23625;48.784;9.336;2024-01-15T06:31:16;0.20;99.90
37786;DHT22;23625;48.784;9.336;2024-01-15T06:33:41;0.30;99.90
37786;DHT22;23625;48.784;9.336;2024-01-15T06:36:07;0.30;99.90
37786;DHT22;23625;48.784;9.336;2024-01-15T06:38:33;0.30;99.90
37786;DHT22;23625;48.784;9.336;2024-01-15T06:40:58;0.30;99.90
37786;DHT22;23625;48.784;9.336;2024-01-15T06:43:24;0.30;99.90
37786;DHT22;23625;48.784;9.336;2024-01-15T06:45:49;0.30;99.90
37786;DHT22;23625;48.784;9.336;2024-01-15T06:48:15;0.30;99.90
37786;DHT22;23625;48.784;9.336;2024-01-15T06:50:42;0.30;99.90
37786;DHT22;23625;48.784;9.336;2024-01-15T06:53:08;0.40;99.90
37786;DHT22;23625;48.784;9.336;2024-01-15T06:55:34;0.40;99.90
37786;DHT22;23625;48.784;9.336;2024-01-15T06:57:59;0.30;99.90
37786;DHT22;23625;48.784;9.336;2024-01-15T07:00:25;0.40;99.90
37786;DHT22;23625;48.784;9.336;2024-01-15T07:02:51;0.40;99.90
37786;DHT22;23625;48.784;9.336;2024-01-15T07:05:17;0.30;99.90
37786;DHT22;23625;48.784;9.336;2024-01-15T07:07:43;0.40;99.90
37786;DHT22;23625;48.784;9.336;2024-01-15T07:10:08;0.50;99.90
37786;DHT22;23625;48.784;9.336;2024-01-15T07:12:34;0.50;99.90
37786;DHT22;23625;48.784;9.336;2024-01-15T07:15:00;0.50;99.90
37786;DHT22;23625;48.784;9.336;2024-01-15T07:17:25;0.50;99.90
37786;DHT22;23625;48.784;9.336;2024-01-15T07:19:51;0.40;99.90
37786;DHT22;23625;48.784;9.336;2024-01-15T07:22:16;0.50;99.90
37786;DHT22;23625;48.784;9.336;2024-01-15T07:24:43;0.50;99.90
37786;DHT22;23625;48.784;9.336;2024-01-15T07:27:09;0.50;99.90
37786;DHT22;23625;48.784;9.336;2024-01-15T07:29:35;0.70;99.90
37786;DHT22;23625;48.784;9.336;2024-01-15T07:32:04;0.60;99.90
37786;DHT22;23625;48.784;9.336;2024-01-15T07:34:30;0.50;99.90
37786;DHT22;23625;48.784;9.336;2024-01-15T07:36:56;0.50;99.90
37786;DHT22;23625;48.784;9.336;2024-01-15T07:39:22;0.40;99.90
37786;DHT22;23625;48.784;9.336;2024-01-15T07:41:50;0.50;99.90
37786;DHT22;23625;48.784;9.336;2024-01-15T07:44:16;0.40;99.90
37786;DHT22;23625;48.784;9.336;2024-01-15T07:46:45;0.40;99.90
37786;DHT22;23625;48.784;9.336;2024-01-15T07:49:11;0.50;99.90
37786;DHT22;23625;48.784;9.336;2024-01-15T07:51:37;0.40;99.90
37786;DHT22;23625;48.784;9.336;2024-01-15T07:54:02;0.50;99.90
37786;DHT22;23625;48.784;9.336;2024-01-15T07:56:28;0.60;99.90
37786;DHT22;23625;48.784;9.336;2024-01-15T07:58:54;0.60;99.90
37786;DHT22;23625;48.784;9.336;2024-01-15T08:01:19;0.60;96.90
37786;DHT22;23625;48.784;9.336;2024-01-15T08:03:45;0.70;97.20
37786;DHT22;23625;48.784;9.336;2024-01-15T08:06:10;0.80;96.30
37786;DHT22;23625;48.784;9.336;2024-01-15T08:08:37;0.70;96.30
37786;DHT22;23625;48.784;9.336;2024-01-15T08:11:03;0.70;96.40
37786;DHT22;23625;48.784;9.336;2024-01-15T08:13:28;0.70;95.20
37786;DHT22;23625;48.784;9.336;2024-01-15T08:15:54;0.70;94.80
37786;DHT22;23625;48.784;9.336;2024-01-15T08:18:19;0.80;93.60
37786;DHT22;23625;48.784;9.336;2024-01-15T08:20:47;0.80;94.30
37786;DHT22;23625;48.784;9.336;2024-01-15T08:23:12;0.80;94.90
37786;DHT22;23625;48.784;9.336;2024-01-15T08:25:38;0.80;94.60
37786;DHT22;23625;48.784;9.336;2024-01-15T08:28:04;0.80;94.40
37786;DHT22;23625;48.784;9.336;2024-01-15T08:30:29;0.90;93.10
37786;DHT22;23625;48.784;9.336;2024-01-15T08:32:55;0.90;92.70
37786;DHT22;23625;48.784;9.336;2024-01-15T08:35:21;0.90;93.10
37786;DHT22;23625;48.784;9.336;2024-01-15T08:37:51;0.90;92.40
37786;DHT22;23625;48.784;9.336;2024-01-15T08:40:18;1.00;91.90
37786;DHT22;23625;48.784;9.336;2024-01-15T08:42:44;1.10;91.40
37786;DHT22;23625;48.784;9.336;2024-01-15T08:45:11;1.00;90.80
37786;DHT22;23625;48.784;9.336;2024-01-15T08:47:36;1.10;90.50
37786;DHT22;23625;48.784;9.336;2024-01-15T08:50:02;1.10;90.40
37786;DHT22;23625;48.784;9.336;2024-01-15T08:52:29;1.10;89.00
37786;DHT22;23625;48.784;9.336;2024-01-15T08:54:58;1.20;88.20
37786;DHT22;23625;48.784;9.336;2024-01-15T08:57:24;1.40;85.80
37786;DHT22;23625;48.784;9.336;2024-01-15T08:59:49;1.40;86.40
37786;DHT22;23625;48.784;9.336;2024-01-15T09:02:16;1.50;84.80
37786;DHT22;23625;48.784;9.336;2024-01-15T09:04:42;1.40;84.80
37786;DHT22;23625;48.784;9.336;2024-01-15T09:07:08;1.40;85.40
37786;DHT22;23625;48.784;9.336;2024-01-15T09:09:33;1.40;84.90
37786;DHT22;23625;48.784;9.336;2024-01-15T09:12:00;1.40;85.30
37786;DHT22;23625;48.784;9.336;2024-01-15T09:14:26;1.50;83.60
37786;DHT22;23625;48.784;9.336;2024-01-15T09:16:52;1.70;82.90
37786;DHT22;23625;48.784;9.336;2024-01-15T09:19:18;1.60;83.70
37786;DHT22;23625;48.784;9.336;2024-01-15T09:21:44;1.60;83.00
37786;DHT22;23625;48.784;9.336;2024-01-15T09:24:11;1.60;82.80
37786;DHT22;23625;48.784;9.336;2024-01-15T09:26:36;1.60;83.10
37786;DHT22;23625;48.784;9.336;2024-01-15T09:29:02;1.70;82.50
37786;DHT22;23625;48.784;9.336;2024-01-15T09:31:28;1.80;81.20
37786;DHT22;23625;48.784;9.336;2024-01-15T09:33:54;1.80;81.60
37786;DHT22;23625;48.784;9.336;2024-01-15T09:36:24;1.70;83.30
37786;DHT22;23625;48.784;9.336;2024-01-15T09:38:51;1.80;82.70
37786;DHT22;23625;48.784;9.336;2024-01-15T09:41:17;1.70;82.80
37786;DHT22;23625;48.784;9.336;2024-01-15T09:43:43;1.70;83.60
37786;DHT22;23625;48.784;9.336;2024-01-15T09:46:08;1.70;83.00
37786;DHT22;23625;48.784;9.336;2024-01-15T09:48:34;1.80;81.90
37786;DHT22;23625;48.784;9.336;2024-01-15T09:51:04;1.80;82.40
37786;DHT22;23625;48.784;9.336;2024-01-15T09:53:30;2.00;81.40
37786;DHT22;23625;48.784;9.336;2024-01-15T09:55:58;2.00;80.30
37786;DHT22;23625;48.784;9.336;2024-01-15T09:58:23;2.00;80.60
37786;DHT22;23625;48.784;9.336;2024-01-15T10:00:50;2.00;80.90
37786;DHT22;23625;48.784;9.336;2024-01-15T10:03:17;2.10;80.30
37786;DHT22;23625;48.784;9.336;2024-01-15T10:05:43;2.20;79.60
37786;DHT22;23625;48.784;9.336;2024-01-15T10:08:09;2.20;79.40
37786;DHT22;23625;48.784;9.336;2024-01-15T10:10:36;2.20;79.10
37786;DHT22;23625;48.784;9.336;2024-01-15T10:13:04;2.20;80.10
37786;DHT22;23625;48.784;9.336;2024-01-15T10:15:34;2.20;80.10
37786;DHT22;23625;48.784;9.336;2024-01-15T10:18:00;2.30;79.50
37786;DHT22;23625;48.784;9.336;2024-01-15T10:20:25;2.30;78.70
37786;DHT22;23625;48.784;9.336;2024-01-15T10:22:51;2.30;78.80
37786;DHT22;23625;48.784;9.336;2024-01-15T10:25:16;2.40;78.50
37786;DHT22;23625;48.784;9.336;2024-01-15T10:27:59;2.30;79.20
37786;DHT22;23625;48.784;9.336;2024-01-15T10:30:26;2.30;78.80
37786;DHT22;23625;48.784;9.336;2024-01-15T10:32:59;2.30;79.00
37786;DHT22;23625;48.784;9.336;2024-01-15T10:35:27;2.30;79.00
37786;DHT22;23625;48.784;9.336;2024-01-15T10:37:53;2.30;78.80
37786;DHT22;23625;48.784;9.336;2024-01-15T10:40:19;2.40;78.30
37786;DHT22;23625;48.784;9.336;2024-01-15T10:42:45;2.30;78.80
37786;DHT22;23625;48.784;9.336;2024-01-15T10:45:12;2.40;78.70
37786;DHT22;23625;48.784;9.336;2024-01-15T10:47:38;2.40;78.50
37786;DHT22;23625;48.784;9.336;2024-01-15T10:50:04;2.20;79.10
37786;DHT22;23625;48.784;9.336;2024-01-15T10:52:33;2.20;79.10
37786;DHT22;23625;48.784;9.336;2024-01-15T10:54:59;2.20;79.40
37786;DHT22;23625;48.784;9.336;2024-01-15T10:57:26;2.40;79.40
37786;DHT22;23625;48.784;9.336;2024-01-15T10:59:52;2.40;78.30
37786;DHT22;23625;48.784;9.336;2024-01-15T11:02:18;2.50;78.40
37786;DHT22;23625;48.784;9.336;2024-01-15T11:04:44;2.40;78.90
37786;DHT22;23625;48.784;9.336;2024-01-15T11:07:10;2.40;79.00
37786;DHT22;23625;48.784;9.336;2024-01-15T11:09:37;2.30;79.60
37786;DHT22;23625;48.784;9.336;2024-01-15T11:12:11;2.40;79.50
37786;DHT22;23625;48.784;9.336;2024-01-15T11:14:42;2.40;79.90
37786;DHT22;23625;48.784;9.336;2024-01-15T11:17:10;2.30;80.50
37786;DHT22;23625;48.784;9.336;2024-01-15T11:19:44;2.30;81.20
37786;DHT22;23625;48.784;9.336;2024-01-15T11:24:54;2.40;81.50
37786;DHT22;23625;48.784;9.336;2024-01-15T11:27:43;2.40;81.80
37786;DHT22;23625;48.784;9.336;2024-01-15T11:30:10;2.50;81.20
37786;DHT22;23625;48.784;9.336;2024-01-15T11:32:39;2.50;81.70
37786;DHT22;23625;48.784;9.336;2024-01-15T11:35:08;2.40;82.50
37786;DHT22;23625;48.784;9.336;2024-01-15T11:40:20;2.30;86.20
37786;DHT22;23625;48.784;9.336;2024-01-15T11:42:46;2.40;88.10
37786;DHT22;23625;48.784;9.336;2024-01-15T11:45:19;2.40;87.60
37786;DHT22;23625;48.784;9.336;2024-01-15T11:50:43;2.30;89.90
37786;DHT22;23625;48.784;9.336;2024-01-15T11:53:33;2.40;90.20
37786;DHT22;23625;48.784;9.336;2024-01-15T11:56:02;2.30;90.90
37786;DHT22;23625;48.784;9.336;2024-01-15T11:58:28;2.30;90.70
37786;DHT22;23625;48.784;9.336;2024-01-15T12:00:54;2.40;89.60
37786;DHT22;23625;48.784;9.336;2024-01-15T12:03:24;2.40;90.20
37786;DHT22;23625;48.784;9.336;2024-01-15T12:05:52;2.40;91.50
37786;DHT22;23625;48.784;9.336;2024-01-15T12:08:24;2.30;91.20
37786;DHT22;23625;48.784;9.336;2024-01-15T12:10:50;2.30;92.40
37786;DHT22;23625;48.784;9.336;2024-01-15T12:13:16;2.30;92.50
37786;DHT22;23625;48.784;9.336;2024-01-15T12:15:44;2.20;94.70
37786;DHT22;23625;48.784;9.336;2024-01-15T12:18:12;2.10;98.40
37786;DHT22;23625;48.784;9.336;2024-01-15T12:20:40;2.10;98.70
37786;DHT22;23625;48.784;9.336;2024-01-15T12:23:05;2.10;99.90
37786;DHT22;23625;48.784;9.336;2024-01-15T12:25:32;2.10;99.90
37786;DHT22;23625;48.784;9.336;2024-01-15T12:27:59;2.10;99.30
37786;DHT22;23625;48.784;9.336;2024-01-15T12:30:29;2.20;98.50
37786;DHT22;23625;48.784;9.336;2024-01-15T12:32:57;2.20;99.70
37786;DHT22;23625;48.784;9.336;2024-01-15T12:35:24;2.10;99.90
37786;DHT22;23625;48.784;9.336;2024-01-15T12:37:51;2.00;99.90
37786;DHT22;23625;48.784;9.336;2024-01-15T12:40:20;1.90;99.90
37786;DHT22;23625;48.784;9.336;2024-01-15T12:42:46;1.90;99.90
37786;DHT22;23625;48.784;9.336;2024-01-15T12:45:12;1.80;99.90
37786;DHT22;23625;48.784;9.336;2024-01-15T12:47:39;1.80;99.90
37786;DHT22;23625;48.784;9.336;2024-01-15T12:50:11;1.80;99.90
37786;DHT22;23625;48.784;9.336;2024-01-15T12:52:39;1.70;99.90
37786;DHT22;23625;48.784;9.336;2024-01-15T12:55:06;1.70;99.90
37786;DHT22;23625;48.784;9.336;2024-01-15T12:57:33;1.70;99.90
37786;DHT22;23625;48.784;9.336;2024-01-15T12:59:59;1.70;99.90
37786;DHT22;23625;48.784;9.336;2024-01-15T13:02:25;1.50;99.90
37786;DHT22;23625;48.784;9.336;2024-01-15T13:04:51;1.40;99.90
37786;DHT22;23625;48.784;9.336;2024-01-15T13:07:16;1.40;99.90
37786;DHT22;23625;48.784;9.336;2024-01-15T13:09:42;1.40;99.90
37786;DHT22;23625;48.784;9.336;2024-01-15T13:12:08;1.40;99.90
37786;DHT22;23625;48.784;9.336;2024-01-15T13:14:34;1.30;99.90
37786;DHT22;23625;48.784;9.336;2024-01-15T13:16:59;1.30;99.90
37786;DHT22;23625;48.784;9.336;2024-01-15T13:19:25;1.20;99.90
37786;DHT22;23625;48.784;9.336;2024-01-15T13:21:51;1.20;99.90
37786;DHT22;23625;48.784;9.336;2024-01-15T13:24:21;1.20;99.90
37786;DHT22;23625;48.784;9.336;2024-01-15T13:26:47;1.30;99.90
37786;DHT22;23625;48.784;9.336;2024-01-15T13:29:13;1.20;99.90
37786;DHT22;23625;48.784;9.336;2024-01-15T13:31:39;1.20;99.90
37786;DHT22;23625;48.784;9.336;2024-01-15T13:34:04;1.20;99.90
37786;DHT22;23625;48.784;9.336;2024-01-15T13:36:30;1.20;99.90
37786;DHT22;23625;48.784;9.336;2024-01-15T13:38:55;1.20;99.90
37786;DHT22;23625;48.784;9.336;2024-01-15T13:41:21;1.40;99.90
37786;DHT22;23625;48.784;9.336;2024-01-15T13:43:50;1.40;99.90
37786;DHT22;23625;48.784;9.336;2024-01-15T13:46:18;1.40;99.90
37786;DHT22;23625;48.784;9.336;2024-01-15T13:48:44;1.30;99.90
37786;DHT22;23625;48.784;9.336;2024-01-15T13:51:10;1.40;99.90
37786;DHT22;23625;48.784;9.336;2024-01-15T13:53:38;1.50;99.90
37786;DHT22;23625;48.784;9.336;2024-01-15T13:56:04;1.60;99.90
37786;DHT22;23625;48.784;9.336;2024-01-15T13:58:30;1.50;99.90
37786;DHT22;23625;48.784;9.336;2024-01-15T14:00:56;1.50;99.90
37786;DHT22;23625;48.784;9.336;2024-01-15T14:03:22;1.40;99.90
37786;DHT22;23625;48.784;9.336;2024-01-15T14:05:47;1.30;99.90
37786;DHT22;23625;48.784;9.336;2024-01-15T14:08:13;1.40;99.90
37786;DHT22;23625;48.784;9.336;2024-01-15T14:10:39;1.40;99.90
37786;DHT22;23625;48.784;9.336;2024-01-15T14:13:05;1.40;99.90
37786;DHT22;23625;48.784;9.336;2024-01-15T14:15:30;1.60;99.90
37786;DHT22;23625;48.784;9.336;2024-01-15T14:17:56;1.50;99.90
37786;DHT22;23625;48.784;9.336;2024-01-15T14:20:23;1.40;99.90
37786;DHT22;23625;48.784;9.336;2024-01-15T14:22:48;1.50;99.90
37786;DHT22;23625;48.784;9.336;2024-01-15T14:25:14;1.40;99.90
37786;DHT22;23625;48.784;9.336;2024-01-15T14:27:39;1.40;99.90
37786;DHT22;23625;48.784;9.336;2024-01-15T14:30:06;1.40;99.90
37786;DHT22;23625;48.784;9.336;2024-01-15T14:32:34;1.40;99.90
37786;DHT22;23625;48.784;9.336;2024-01-15T14:34:59;1.40;99.90
37786;DHT22;23625;48.784;9.336;2024-01-15T14:37:25;1.40;99.90
37786;DHT22;23625;48.784;9.336;2024-01-15T14:39:51;1.40;99.90
37786;DHT22;23625;48.784;9.336;2024-01-15T14:42:17;1.50;99.90
37786;DHT22;23625;48.784;9.336;2024-01-15T14:44:43;1.60;99.90
37786;DHT22;23625;48.784;9.336;2024-01-15T14:47:08;1.50;99.90
37786;DHT22;23625;48.784;9.336;2024-01-15T14:49:34;1.50;99.90
37786;DHT22;23625;48.784;9.336;2024-01-15T14:52:00;1.50;99.90
37786;DHT22;23625;48.784;9.336;2024-01-15T14:54:25;1.40;99.90
37786;DHT22;23625;48.784;9.336;2024-01-15T14:56:51;1.30;99.90
37786;DHT22;23625;48.784;9.336;2024-01-15T14:59:17;1.30;99.90
37786;DHT22;23625;48.784;9.336;2024-01-15T15:01:42;1.30;99.90
37786;DHT22;23625;48.784;9.336;2024-01-15T15:04:08;1.20;99.90
37786;DHT22;23625;48.784;9.336;2024-01-15T15:06:36;1.20;99.90
37786;DHT22;23625;48.784;9.336;2024-01-15T15:09:02;1.10;99.90
37786;DHT22;23625;48.784;9.336;2024-01-15T15:11:28;1.00;99.90
37786;DHT22;23625;48.784;9.336;2024-01-15T15:13:53;0.90;99.90
37786;DHT22;23625;48.784;9.336;2024-01-15T15:16:19;0.90;99.90
37786;DHT22;23625;48.784;9.336;2024-01-15T15:18:44;0.90;99.90
37786;DHT22;23625;48.784;9.336;2024-01-15T15:21:11;0.80;99.90
37786;DHT22;23625;48.784;9.336;2024-01-15T15:23:37;0.90;99.90
37786;DHT22;23625;48.784;9.336;2024-01-15T15:26:04;1.00;99.90
37786;DHT22;23625;48.784;9.336;2024-01-15T15:28:30;0.90;99.90
37786;DHT22;23625;48.784;9.336;2024-01-15T15:30:56;0.80;99.90
37786;DHT22;23625;48.784;9.336;2024-01-15T15:33:22;0.70;99.90
37786;DHT22;23625;48.784;9.336;2024-01-15T15:35:48;0.80;99.90
37786;DHT22;23625;48.784;9.336;2024-01-15T15:38:16;0.80;99.90
37786;DHT22;23625;48.784;9.336;2024-01-15T15:40:42;0.80;99.90
37786;DHT22;23625;48.784;9.336;2024-01-15T15:43:08;0.80;99.90